Time;durP1;ratioP1;P1;durP2;ratioP2;P2;SDS_P1;SDS_P2;PMS_P1;PMS_P2;Temp;Humidity;BMP_temperature;BMP_pressure;BME280_temperature;BME280_humidity;BME280_pressure;Samples;Min_cycle;Max_cycle;Signal;HPM_P1;HPM_P2
2024/02/02 00:13:56;;;;;;;22.70;4.10;;;;;;;6.25;74.56;100644.39;679619;1264;139217;-79
2024/02/02 00:29:00;;;;;;;17.30;3.50;;;;;;;6.17;75.29;100651.98;680912;1262;139215;-80
2024/02/02 00:44:04;;;;;;;19.20;3.90;;;;;;;6.13;75.01;100659.00;680375;1264;138945;-79
2024/02/02 00:59:07;;;;;;;34.10;10.80;;;;;;;6.08;75.25;100658.67;680905;1263;139346;-79
2024/02/02 01:14:12;;;;;;;28.60;6.60;;;;;;;6.07;75.34;100673.81;680923;1265;139007;-80
2024/02/02 01:29:16;;;;;;;16.70;3.90;;;;;;;6.01;75.59;100689.15;681374;1265;139895;-79
2024/02/02 01:44:19;;;;;;;19.80;4.90;;;;;;;5.79;75.30;100687.48;679577;1265;139553;-81
2024/02/02 01:59:24;;;;;;;25.60;6.10;;;;;;;5.56;75.52;100695.13;679842;1262;139716;-80
2024/02/02 02:14:29;;;;;;;15.70;4.10;;;;;;;5.45;76.06;100690.59;679666;1265;139338;-79
2024/02/02 02:29:33;;;;;;;27.30;4.60;;;;;;;5.33;77.04;100698.58;680297;1265;138867;-79
2024/02/02 02:44:36;;;;;;;15.00;5.00;;;;;;;5.30;76.52;100690.59;680617;1262;139005;-80
2024/02/02 02:59:39;;;;;;;15.80;3.80;;;;;;;5.08;76.75;100706.45;679187;1260;139578;-80
2024/02/02 03:14:44;;;;;;;20.90;4.80;;;;;;;5.01;77.24;100714.13;680433;1265;138778;-79
2024/02/02 03:29:47;;;;;;;23.70;4.10;;;;;;;4.93;78.06;100729.68;681583;1264;139147;-80
2024/02/02 03:44:51;;;;;;;16.90;4.20;;;;;;;4.98;78.29;100750.88;677186;1272;139994;-80
2024/02/02 03:59:54;;;;;;;19.10;3.70;;;;;;;5.04;77.74;100769.11;679171;1265;139381;-79
2024/02/02 04:14:57;;;;;;;24.40;5.70;;;;;;;4.97;78.70;100768.98;680090;1263;140472;-80
2024/02/02 04:30:01;;;;;;;20.00;3.70;;;;;;;4.76;78.76;100781.97;679739;1265;140119;-80
2024/02/02 04:45:05;;;;;;;19.80;4.50;;;;;;;4.61;78.93;100778.77;680409;1265;139081;-81
2024/02/02 05:00:09;;;;;;;19.50;4.20;;;;;;;4.48;80.01;100785.20;679787;1259;139350;-80
2024/02/02 05:15:12;;;;;;;26.70;4.50;;;;;;;4.47;80.39;100788.55;680169;1265;142948;-80
2024/02/02 05:30:16;;;;;;;20.80;5.20;;;;;;;4.37;80.32;100796.20;676185;1275;138673;-80
2024/02/02 05:45:20;;;;;;;23.20;5.80;;;;;;;4.27;80.48;100803.11;680720;1265;139110;-79
2024/02/02 06:00:24;;;;;;;20.00;5.30;;;;;;;4.31;80.73;100804.11;680641;1264;140002;-80
2024/02/02 06:15:27;;;;;;;95.70;34.90;;;;;;;4.23;80.96;100807.64;679098;1265;139401;-80
2024/02/02 06:30:31;;;;;;;47.90;14.60;;;;;;;4.20;81.29;100824.77;680603;1263;139149;-79
2024/02/02 06:45:34;;;;;;;35.40;8.50;;;;;;;4.16;81.51;100843.85;679286;1262;139062;-80
2024/02/02 07:00:38;;;;;;;47.40;12.60;;;;;;;4.14;81.73;100854.02;679900;1265;139587;-79
2024/02/02 07:15:43;;;;;;;55.60;12.70;;;;;;;4.30;82.22;100848.70;680303;1265;139198;-80
2024/02/02 07:30:57;;;;;;;41.90;10.20;;;;;;;4.46;81.47;100857.51;679242;1263;139589;-80
2024/02/02 07:46:02;;;;;;;41.70;13.90;;;;;;;4.85;81.36;100862.03;678267;1265;139050;-81
2024/02/02 08:01:12;;;;;;;34.80;9.70;;;;;;;5.62;80.95;100858.60;679909;1265;140774;-81
2024/02/02 08:16:15;;;;;;;36.20;9.00;;;;;;;5.97;80.04;100866.62;680495;1265;138584;-81
2024/02/02 08:31:19;;;;;;;38.10;11.50;;;;;;;6.03;81.25;100877.23;677325;1265;138946;-81
2024/02/02 08:46:24;;;;;;;33.10;7.90;;;;;;;5.63;84.95;100884.71;679612;1259;139307;-80
2024/02/02 09:01:42;;;;;;;33.50;10.20;;;;;;;5.74;87.74;100879.95;679974;1263;254597;-82
2024/02/02 09:16:49;;;;;;;34.90;7.50;;;;;;;5.92;87.98;100873.35;679728;1262;140059;-80
2024/02/02 09:31:53;;;;;;;45.00;11.10;;;;;;;6.08;87.57;100877.48;675650;1263;138781;-80
2024/02/02 09:47:18;;;;;;;97.70;32.60;;;;;;;6.31;86.43;100873.63;680488;1265;139440;-81
2024/02/02 10:02:49;;;;;;;59.50;18.00;;;;;;;6.69;86.22;100854.09;678565;1263;139736;-81
2024/02/02 10:18:02;;;;;;;29.70;8.40;;;;;;;7.55;84.34;100845.85;678440;1266;139612;-79
2024/02/02 10:33:32;;;;;;;36.50;11.30;;;;;;;8.32;81.24;100852.83;681663;1264;140480;-80
2024/02/02 10:49:14;;;;;;;23.00;7.40;;;;;;;7.61;79.69;100859.35;680166;1263;142330;-81
2024/02/02 11:05:23;;;;;;;30.70;8.20;;;;;;;7.28;79.76;100854.00;679303;1264;139324;-79
2024/02/02 11:20:47;;;;;;;40.20;9.90;;;;;;;7.48;79.65;100832.36;680951;1264;139115;-81
2024/02/02 11:36:15;;;;;;;72.40;20.90;;;;;;;7.14;80.41;100807.94;679786;1274;139330;-80
2024/02/02 11:51:20;;;;;;;32.80;11.70;;;;;;;7.12;80.39;100783.59;678750;1270;139805;-80
2024/02/02 12:06:28;;;;;;;32.50;11.10;;;;;;;7.15;80.49;100759.42;681215;1276;139536;-80
2024/02/02 12:21:33;;;;;;;32.60;10.70;;;;;;;7.26;80.29;100734.11;679376;1267;140477;-80
2024/02/02 12:36:38;;;;;;;30.60;11.30;;;;;;;7.22;79.88;100714.38;678483;1266;140377;-80
2024/02/02 12:51:45;;;;;;;43.10;15.40;;;;;;;7.20;79.23;100711.39;673161;1273;139823;-80
2024/02/02 13:06:50;;;;;;;26.90;8.80;;;;;;;7.10;79.08;100692.39;676970;1265;140307;-80
2024/02/02 13:22:03;;;;;;;43.50;16.20;;;;;;;7.21;78.88;100676.70;678232;1267;139633;-80
2024/02/02 13:37:09;;;;;;;38.10;12.10;;;;;;;7.00;80.74;100653.73;679629;1265;139779;-80
2024/02/02 13:52:15;;;;;;;58.10;18.80;;;;;;;6.72;83.81;100628.81;678450;1260;139742;-80
2024/02/02 14:07:20;;;;;;;34.40;13.60;;;;;;;6.41;87.39;100611.41;681025;1262;139608;-81
2024/02/02 14:22:26;;;;;;;23.00;9.40;;;;;;;6.13;90.62;100572.70;681005;1261;139519;-80
2024/02/02 14:37:32;;;;;;;26.80;11.10;;;;;;;5.99;92.51;100550.66;681054;1262;139225;-81
2024/02/02 14:52:36;;;;;;;34.10;13.50;;;;;;;5.82;94.00;100515.25;680736;1268;139899;-81
2024/02/02 15:07:42;;;;;;;63.50;22.50;;;;;;;5.83;94.60;100494.55;680843;1265;139640;-80
2024/02/02 15:22:46;;;;;;;66.80;22.60;;;;;;;5.75;96.00;100470.27;680931;1262;140197;-81
2024/02/02 15:37:49;;;;;;;59.70;20.70;;;;;;;5.77;96.29;100449.34;680927;1265;139515;-80
2024/02/02 15:52:53;;;;;;;59.70;21.30;;;;;;;5.75;97.49;100422.17;680854;1265;139869;-80
2024/02/02 16:07:58;;;;;;;49.80;20.20;;;;;;;5.73;98.07;100388.29;680981;1265;139335;-82
2024/02/02 16:23:03;;;;;;;42.00;18.10;;;;;;;5.75;98.83;100352.77;680935;1265;139529;-81
2024/02/02 16:38:09;;;;;;;42.30;17.90;;;;;;;5.68;99.44;100317.84;681064;1261;139653;-81
2024/02/02 16:53:14;;;;;;;40.20;18.10;;;;;;;5.73;100.00;100296.17;681303;1263;139627;-81
2024/02/02 17:08:17;;;;;;;40.10;17.00;;;;;;;5.64;100.00;100261.55;681183;1263;139653;-83
2024/02/02 17:23:22;;;;;;;26.80;14.20;;;;;;;5.65;100.00;100239.41;681015;1263;140038;-80
2024/02/02 17:38:28;;;;;;;33.40;16.40;;;;;;;5.71;100.00;100209.50;680914;1265;138855;-83
2024/02/02 17:53:32;;;;;;;41.00;21.50;;;;;;;5.97;100.00;100182.59;680869;1262;140029;-80
2024/02/02 18:08:36;;;;;;;45.30;19.50;;;;;;;6.05;100.00;100145.06;680999;1276;139018;-80
2024/02/02 18:23:40;;;;;;;37.60;17.90;;;;;;;6.11;100.00;100102.09;680893;1265;139815;-81
2024/02/02 18:38:45;;;;;;;37.50;16.10;;;;;;;6.12;100.00;100082.91;681038;1260;139855;-80
2024/02/02 18:53:51;;;;;;;30.90;13.20;;;;;;;6.22;100.00;100050.38;681027;1264;139335;-81
2024/02/02 19:08:55;;;;;;;28.50;15.20;;;;;;;6.32;100.00;100019.27;680802;1265;139625;-80
2024/02/02 19:24:00;;;;;;;43.10;18.80;;;;;;;6.26;100.00;99982.05;681061;1264;139223;-81
2024/02/02 19:39:08;;;;;;;31.40;14.60;;;;;;;6.37;100.00;99959.83;681217;1262;140302;-80
2024/02/02 19:54:13;;;;;;;30.80;14.50;;;;;;;6.48;100.00;99930.53;681397;1263;140405;-79
2024/02/02 20:09:28;;;;;;;46.00;20.40;;;;;;;6.42;100.00;99905.42;681269;1259;139772;-81
2024/02/02 20:24:33;;;;;;;29.50;15.80;;;;;;;6.64;100.00;99882.92;681669;1262;138508;-81
2024/02/02 20:39:38;;;;;;;26.20;14.00;;;;;;;6.64;100.00;99845.38;681651;1262;139310;-80
2024/02/02 20:54:43;;;;;;;27.30;15.10;;;;;;;6.79;100.00;99799.71;681436;1263;150505;-80
2024/02/02 21:09:51;;;;;;;22.90;13.20;;;;;;;6.97;100.00;99791.16;681580;1264;138999;-80
2024/02/02 21:24:55;;;;;;;38.20;17.80;;;;;;;7.01;100.00;99741.61;681731;1265;138840;-79
2024/02/02 21:40:02;;;;;;;33.10;18.10;;;;;;;7.07;100.00;99694.17;681559;1265;138958;-81
2024/02/02 21:55:07;;;;;;;32.10;16.60;;;;;;;7.25;100.00;99674.80;681533;1265;139324;-79
2024/02/02 22:10:11;;;;;;;22.90;13.70;;;;;;;7.28;100.00;99665.35;680788;1277;140226;-79
2024/02/02 22:25:14;;;;;;;17.30;11.30;;;;;;;7.50;100.00;99650.27;681286;1265;139682;-79
2024/02/02 22:40:18;;;;;;;23.30;13.30;;;;;;;7.52;100.00;99604.50;681005;1268;140219;-81
2024/02/02 22:55:22;;;;;;;19.50;11.40;;;;;;;7.68;100.00;99587.68;681200;1262;139887;-79
2024/02/02 23:10:27;;;;;;;20.90;12.40;;;;;;;7.83;100.00;99561.20;681142;1265;138693;-79
2024/02/02 23:25:31;;;;;;;17.20;9.90;;;;;;;7.89;100.00;99543.18;681371;1265;139328;-79
2024/02/02 23:40:34;;;;;;;15.70;9.00;;;;;;;7.89;100.00;99514.73;681182;1265;140160;-81
2024/02/02 23:55:38;;;;;;;15.70;9.30;;;;;;;8.04;100.00;99499.15;681360;1270;138990;-79
